createdAt,value
2022-10-21T00:02:56.045Z,59.68
2022-10-21T00:12:57.503Z,59.27
2022-10-21T00:22:58.952Z,59.05
2022-10-21T00:33:03.009Z,59.15
2022-10-21T00:43:04.947Z,58.96
2022-10-21T00:53:09.456Z,59.18
2022-10-21T01:03:10.900Z,59.47
2022-10-21T01:13:37.342Z,59.23
2022-10-21T01:24:16.133Z,59.22
2022-10-21T01:34:20.574Z,59.95
2022-10-21T01:44:41.386Z,60.08
2022-10-21T01:55:00.666Z,60.38
2022-10-21T02:05:09.239Z,60.95
2022-10-21T02:15:12.438Z,61.61
2022-10-21T02:25:20.006Z,61.69
2022-10-21T02:35:52.637Z,62.19
2022-10-21T02:46:09.920Z,62.15
2022-10-21T02:56:11.393Z,62.63
2022-10-21T03:06:13.397Z,62.77
2022-10-21T03:16:14.900Z,62.25
2022-10-21T03:26:16.405Z,62.17
2022-10-21T03:36:17.856Z,62.27
2022-10-21T03:46:19.351Z,62.45
2022-10-21T03:56:20.802Z,61.89
2022-10-21T04:06:22.370Z,61.66
2022-10-21T04:16:24.005Z,62.21
2022-10-21T04:26:25.514Z,62.54
2022-10-21T04:36:26.985Z,63.39
2022-10-21T04:46:28.494Z,63.27
2022-10-21T04:56:30.372Z,62.37
2022-10-21T05:06:31.949Z,62.42
2022-10-21T05:16:33.419Z,62.30
2022-10-21T05:26:34.940Z,62.79
2022-10-21T05:36:36.481Z,63.09
2022-10-21T05:46:38.193Z,63.02
2022-10-21T05:56:39.729Z,62.24
2022-10-21T06:06:41.297Z,63.12
2022-10-21T06:16:42.763Z,63.06
2022-10-21T06:26:44.334Z,62.31
2022-10-21T06:36:45.799Z,62.13
2022-10-21T06:46:47.240Z,61.81
2022-10-21T06:56:48.810Z,62.21
2022-10-21T07:06:51.435Z,62.55
2022-10-21T07:16:53.896Z,61.54
2022-10-21T07:26:55.485Z,61.55
2022-10-21T07:36:56.956Z,59.40
2022-10-21T07:46:58.493Z,54.09
2022-10-21T07:56:59.942Z,51.94
2022-10-21T08:07:01.487Z,48.45
2022-10-21T08:17:02.979Z,48.07
2022-10-21T08:27:05.495Z,50.29
2022-10-21T08:37:07.102Z,50.05
2022-10-21T08:47:12.955Z,51.34
2022-10-21T08:57:15.189Z,47.83
2022-10-21T09:07:30.030Z,49.68
2022-10-21T09:18:08.890Z,52.01
2022-10-21T09:28:13.478Z,53.28
2022-10-21T09:38:21.409Z,53.02
2022-10-21T09:48:30.142Z,52.31
2022-10-21T09:58:38.945Z,48.31
2022-10-21T10:08:47.286Z,45.90
2022-10-21T10:19:08.609Z,45.86
2022-10-21T10:29:25.185Z,39.44
2022-10-21T10:39:30.524Z,39.49
2022-10-21T10:49:41.443Z,39.37
2022-10-21T10:59:46.818Z,40.77
2022-10-21T11:09:52.818Z,43.21
2022-10-21T11:19:57.353Z,43.12
2022-10-21T11:30:13.506Z,45.40
2022-10-21T11:40:22.813Z,47.27
2022-10-21T11:50:30.640Z,47.08
2022-10-21T12:00:41.182Z,47.51
2022-10-21T12:11:04.280Z,48.15
2022-10-21T12:21:13.458Z,49.25
2022-10-21T12:31:45.488Z,49.22
2022-10-21T12:41:48.194Z,49.95
2022-10-21T12:51:51.795Z,50.92
2022-10-21T13:02:05.524Z,51.16
2022-10-21T13:12:10.109Z,51.09
2022-10-21T13:22:14.934Z,51.68
2022-10-21T13:32:19.462Z,51.74
2022-10-21T13:42:24.761Z,51.71
2022-10-21T13:52:28.874Z,51.54
2022-10-21T14:02:30.345Z,51.29
2022-10-21T14:12:41.632Z,51.94
2022-10-21T14:22:48.921Z,52.91
2022-10-21T14:32:51.946Z,53.83
2022-10-21T14:42:56.469Z,54.23
2022-10-21T14:52:58.112Z,55.28
2022-10-21T15:03:00.839Z,55.97
2022-10-21T15:13:02.380Z,56.26
2022-10-21T15:23:04.151Z,55.62
2022-10-21T15:33:11.232Z,56.08
2022-10-21T15:43:14.283Z,57.29
2022-10-21T15:53:15.794Z,58.01
2022-10-21T16:03:17.911Z,58.54
2022-10-21T16:13:19.466Z,59.43
2022-10-21T16:23:20.915Z,60.32
2022-10-21T16:33:22.345Z,60.94
2022-10-21T16:43:24.092Z,61.14
2022-10-21T16:53:28.931Z,61.40
2022-10-21T17:03:30.421Z,61.97
2022-10-21T17:13:31.850Z,61.81
2022-10-21T17:23:33.406Z,62.40
2022-10-21T17:33:34.897Z,62.74
2022-10-21T17:43:36.563Z,62.70
2022-10-21T17:53:38.010Z,62.89
2022-10-21T18:03:40.137Z,63.05
2022-10-21T18:13:43.238Z,62.80
2022-10-21T18:23:46.892Z,62.54
2022-10-21T18:33:49.175Z,62.43
2022-10-21T18:44:04.509Z,62.79
2022-10-21T18:54:05.981Z,63.28
2022-10-21T19:04:07.921Z,63.43
2022-10-21T19:14:13.066Z,63.94
2022-10-21T19:24:15.858Z,64.08
2022-10-21T19:34:20.828Z,64.27
2022-10-21T19:44:22.305Z,64.33
2022-10-21T19:54:24.825Z,64.85
2022-10-21T20:04:26.376Z,65.18
2022-10-21T20:14:27.911Z,65.41
2022-10-21T20:24:29.435Z,65.61
2022-10-21T20:34:34.038Z,66.08
2022-10-21T20:44:38.338Z,66.00
2022-10-21T20:54:40.094Z,66.16
2022-10-21T21:04:41.517Z,66.29
2022-10-21T21:14:42.975Z,66.88
2022-10-21T21:24:44.438Z,66.65
2022-10-21T21:34:48.966Z,67.01
2022-10-21T21:44:51.502Z,67.00
2022-10-21T21:54:55.257Z,66.96
2022-10-21T22:04:56.705Z,67.16
2022-10-21T22:14:58.203Z,67.17
2022-10-21T22:24:59.758Z,67.11
2022-10-21T22:35:01.841Z,67.00
2022-10-21T22:45:04.063Z,67.22
2022-10-21T22:55:06.073Z,67.30
2022-10-21T23:05:07.930Z,67.46
2022-10-21T23:15:09.922Z,67.55
2022-10-21T23:25:11.368Z,67.31
2022-10-21T23:35:13.410Z,67.46
2022-10-21T23:45:14.850Z,67.58
2022-10-21T23:55:16.574Z,67.68
